Página principal
METAR-TAF:

METAR-TAF

Aeroportos :

Saint-Louis, Senegal

latitude: 16-03N, longitude: 016-27W, altura: 4 m

Observação actual do tempo

O boletim foi feito há 56 minutos, às 16:00 UTC
Vento 12 kt de norte
Temperatura 31°C
Humidade 71%
Pressão 1010 hPa
Visibilidade 10 km ou mais
sem nuvens abaixo de 1500 metros e sem cumulonimbus

METAR: GOSS 231600Z 36012KT CAVOK 31/25 Q1010

Hora: 16:56 (16:56 UTC)

Previsão

O boletim foi feito há 5 horas e 26 minutos, às 11:30 UTC
Previsão válida de 23 às 12 UTC a 24 às 12 UTC
Vento 8 kt de nor-noroeste
Visibilidade 10 km ou mais
Nuvens dispersasa uma altura de 1000 ft

TAF: GOSS 231130Z 2312/2412 34008KT 9999 SCT010

Observações e previsões do tempo de mais de 4000 aeroportos (mensagens METAR e TAF).

As estações disponíveis são os pontos amarelos e vermelhos sobre o mapa.

Mova o rato sobre o mapa para ver o nome da estação.

Depois clique no ponto para visualizar as observações e previsões meteorológicas.

Para alterar o mapa : clique nos botões verdes com uma cruz preta para aumentar o zoom; no botão verde com uma pitada de zoom; ou nas setas verdes para mapas adjacentes.


METAR-TAF: